Etusivu
METAR-TAF:

METAR-TAF

Lentoasemat :

Gage, Oklahoma, Yhdysvallat

Leveyspiiri: 36-17-48N, Pituuspiiri: 099-46-08W, korkeus merenpinnasta: 677 m

Tämänhetkinen sää

Tämä raportti tehtiin 21 minuuttia sitten, kello 03.40 UTC
Tuuli 6 kn etelästä/kaakosta
Lämpötila 17°C
Kosteus 94%
Ilmanpaine 1010 hPa
Näkyvyys: 11.3 km
Hajonneita pilviä 8000 ft:n korkeudessa
Pilvistä 9000 ft:n korkeudessa
heikkoa sadetta

METAR: KGAG 250340Z AUTO 16006KT 7SM -RA BKN080 OVC090 17/16 A2983 RMK AO2 LTG DSNT N-SE TSB0256E11B19E34 P0010 T01670156 $

Aika: 23:01 (04:01 UTC)


TAF: puuttuu

Säähavainnot ja -ennusteet yli 4000 lentoasemalta (METAR- ja TAF-raportit).

Käytössä olevat sääasemat on merkitty karttaan keltaisilla ja punaisilla pisteillä.

Aseta hiiri pisteen päälle nähdäksesi sääaseman nimen.

Klikkaa sitten nähdäksesi säähavainnot ja -ennusteet.

Kartan vaihtaminen: klikkaa mustalla rastilla varustettuja vihreitä pisteitä, niin voit zoomata sisään; viivalla varustettua vihreää pistettä, niin voit zoomata ulos tai vihreitä nuolia, niin pääset viereisille kartoille.


METAR-TAF: